Time;durP1;ratioP1;P1;durP2;ratioP2;P2;SDS_P1;SDS_P2;PMS_P1;PMS_P2;Temp;Humidity;BMP_temperature;BMP_pressure;BME280_temperature;BME280_humidity;BME280_pressure;Samples;Min_cycle;Max_cycle;Signal;HPM_P1;HPM_P2
2022/06/04 00:02:17;;;;;;;3.50;1.80;;;;;;;15.45;63.74;101643.59;5207227;28;20486;-68
2022/06/04 00:04:48;;;;;;;4.25;1.80;;;;;;;15.38;63.65;101640.59;5214699;28;20100;-68
2022/06/04 00:07:19;;;;;;;4.35;2.00;;;;;;;15.32;63.73;101638.38;5200943;28;20026;-68
2022/06/04 00:15:30;;;;;;;3.33;1.90;;;;;;;15.24;64.15;101632.81;5197968;28;20026;-68
2022/06/04 00:18:02;;;;;;;6.25;2.35;;;;;;;15.27;63.78;101630.72;5197712;28;20410;-68
2022/06/04 00:20:33;;;;;;;3.95;2.22;;;;;;;15.25;63.55;101639.91;5200388;28;20335;-69
2022/06/04 00:23:06;;;;;;;3.35;2.13;;;;;;;15.22;63.78;101632.94;5210939;28;20030;-68
2022/06/04 00:25:42;;;;;;;3.55;1.85;;;;;;;15.17;65.35;101635.16;5209800;28;20040;-68
2022/06/04 00:28:14;;;;;;;5.88;2.50;;;;;;;15.15;64.33;101642.50;5209487;28;20033;-68
2022/06/04 00:30:46;;;;;;;4.07;2.10;;;;;;;15.14;64.66;101640.78;5215520;28;20061;-68
2022/06/04 00:33:18;;;;;;;4.50;2.20;;;;;;;15.12;64.04;101642.75;5202347;28;20077;-68
2022/06/04 00:35:54;;;;;;;5.85;2.30;;;;;;;15.13;65.68;101657.91;5210524;28;20492;-68
2022/06/04 00:38:27;;;;;;;4.25;1.92;;;;;;;15.09;65.43;101653.75;5218064;28;20025;-68
2022/06/04 00:41:35;;;;;;;4.17;1.90;;;;;;;15.12;64.71;101652.66;5210219;28;20085;-69
2022/06/04 00:44:09;;;;;;;5.18;2.03;;;;;;;15.09;64.95;101637.63;5218450;28;20312;-68
2022/06/04 00:46:41;;;;;;;6.32;2.13;;;;;;;15.08;65.86;101626.03;5218289;28;20156;-68
2022/06/04 00:49:15;;;;;;;3.45;1.98;;;;;;;14.99;63.92;101624.09;5211280;28;20104;-68
2022/06/04 00:51:50;;;;;;;3.80;2.10;;;;;;;14.95;63.68;101644.13;5216091;28;20571;-68
2022/06/04 00:54:21;;;;;;;3.78;2.00;;;;;;;15.00;63.82;101651.84;5212358;28;20483;-68
2022/06/04 00:57:18;;;;;;;3.47;2.22;;;;;;;14.96;64.10;101659.31;5207950;28;20109;-68
2022/06/04 01:00:10;;;;;;;4.90;2.00;;;;;;;14.92;63.57;101668.59;5210593;28;20033;-68
2022/06/04 01:03:04;;;;;;;3.05;1.88;;;;;;;14.92;64.20;101665.03;5207004;28;20041;-68
2022/06/04 01:05:56;;;;;;;3.67;2.13;;;;;;;14.94;64.70;101674.69;5207408;28;20091;-69
2022/06/04 01:08:43;;;;;;;4.80;1.98;;;;;;;14.83;63.61;101678.25;5204377;28;20041;-68
2022/06/04 01:11:22;;;;;;;5.30;2.00;;;;;;;14.91;63.35;101699.13;5210805;28;20013;-68
2022/06/04 01:14:18;;;;;;;7.10;2.10;;;;;;;14.85;63.63;101678.97;5216119;28;20665;-69
2022/06/04 01:17:27;;;;;;;5.20;2.35;;;;;;;14.85;64.02;101680.81;5210261;28;20054;-68
2022/06/04 01:20:17;;;;;;;3.22;2.13;;;;;;;14.85;64.83;101686.19;5202024;28;20444;-69
2022/06/04 01:23:10;;;;;;;4.35;2.10;;;;;;;14.83;63.61;101689.00;5208117;28;20041;-68
2022/06/04 01:26:08;;;;;;;4.05;2.17;;;;;;;14.73;63.19;101690.72;5211849;28;20480;-68
2022/06/04 01:28:47;;;;;;;5.13;2.17;;;;;;;14.70;63.58;101691.81;5206441;28;20037;-68
2022/06/04 01:31:32;;;;;;;4.93;2.05;;;;;;;14.78;63.65;101701.09;5218098;28;20020;-68
2022/06/04 01:34:09;;;;;;;5.05;2.20;;;;;;;14.65;64.06;101701.22;5203129;28;20476;-68
2022/06/04 01:37:03;;;;;;;5.75;2.33;;;;;;;14.72;64.18;101693.53;5217728;28;20036;-68
2022/06/04 01:42:32;;;;;;;5.97;2.33;;;;;;;14.59;64.02;101689.13;5210781;28;20484;-67
2022/06/04 01:45:09;;;;;;;4.05;2.20;;;;;;;14.60;63.84;101703.44;5205551;28;20021;-67
2022/06/04 01:47:43;;;;;;;4.18;2.50;;;;;;;14.50;63.85;101709.50;5220294;28;20074;-67
2022/06/04 01:50:19;;;;;;;6.38;2.22;;;;;;;14.58;64.23;101716.13;5217617;28;20105;-67
2022/06/04 01:52:53;;;;;;;5.97;2.42;;;;;;;14.44;63.54;101723.41;5211184;28;20039;-67
2022/06/04 01:55:36;;;;;;;5.63;2.53;;;;;;;14.44;63.94;101725.22;5197511;28;20037;-67
2022/06/04 01:58:13;;;;;;;3.50;2.33;;;;;;;14.50;67.51;101724.75;5213372;28;20022;-67
2022/06/04 02:00:52;;;;;;;8.30;3.30;;;;;;;14.37;64.13;101726.72;5206951;28;20030;-67
2022/06/04 02:03:32;;;;;;;5.53;2.20;;;;;;;14.37;64.28;101721.34;5208340;28;20033;-68
2022/06/04 02:06:13;;;;;;;4.68;2.30;;;;;;;14.38;65.21;101721.22;5208403;28;20061;-68
2022/06/04 02:08:55;;;;;;;5.03;2.75;;;;;;;14.33;64.63;101718.03;5212163;28;20475;-68
2022/06/04 02:11:26;;;;;;;4.82;2.17;;;;;;;14.38;65.97;101709.59;5208589;28;20051;-68
2022/06/04 02:14:03;;;;;;;4.53;2.35;;;;;;;14.29;67.26;101724.63;5204755;28;20059;-67
2022/06/04 02:17:06;;;;;;;5.05;2.20;;;;;;;14.30;64.98;101727.19;5205562;28;20082;-67
2022/06/04 02:19:37;;;;;;;5.28;2.45;;;;;;;14.31;69.64;101728.88;5199718;28;20415;-67
2022/06/04 02:22:12;;;;;;;5.25;2.30;;;;;;;14.19;66.44;101721.81;5217147;28;20087;-67
2022/06/04 02:24:45;;;;;;;5.53;2.60;;;;;;;14.18;65.32;101730.81;5212271;28;20030;-68
2022/06/04 02:27:16;;;;;;;6.28;3.10;;;;;;;14.12;65.47;101726.78;5208160;28;20369;-68
2022/06/04 02:29:48;;;;;;;7.22;2.65;;;;;;;14.17;65.22;101720.19;5201461;28;20049;-68
2022/06/04 02:32:29;;;;;;;5.03;2.85;;;;;;;14.19;67.38;101728.97;5212510;28;20030;-68
2022/06/04 02:35:03;;;;;;;4.90;2.50;;;;;;;14.12;66.77;101720.56;5205558;28;20069;-69
2022/06/04 02:38:07;;;;;;;6.32;2.75;;;;;;;14.17;66.55;101718.38;5212348;28;20467;-68
2022/06/04 02:40:47;;;;;;;5.38;2.70;;;;;;;14.03;66.08;101706.00;5204006;28;20022;-68
2022/06/04 02:43:42;;;;;;;6.50;2.30;;;;;;;14.08;65.98;101708.38;5216763;28;20373;-68
2022/06/04 02:46:41;;;;;;;4.70;2.55;;;;;;;13.99;66.02;101701.88;5214224;28;20049;-68
2022/06/04 02:49:21;;;;;;;4.80;2.63;;;;;;;13.90;67.98;101682.00;5210209;28;20088;-68
2022/06/04 02:51:54;;;;;;;5.50;2.88;;;;;;;13.84;67.25;101671.69;5211579;28;20033;-67
2022/06/04 02:54:48;;;;;;;5.47;2.97;;;;;;;13.82;67.98;101665.59;5215130;28;20029;-68
2022/06/04 02:57:19;;;;;;;7.93;2.80;;;;;;;13.75;67.56;101664.38;5216214;28;20030;-67
2022/06/04 02:59:52;;;;;;;6.03;2.95;;;;;;;13.76;68.60;101652.69;5199265;28;20022;-68
2022/06/04 03:02:28;;;;;;;5.80;3.40;;;;;;;13.69;68.05;101663.03;5201305;28;20029;-67
2022/06/04 03:05:11;;;;;;;6.15;2.97;;;;;;;13.65;69.15;101649.97;5200145;28;20084;-68
2022/06/04 03:07:47;;;;;;;5.05;2.90;;;;;;;13.63;68.53;101654.59;5210351;28;20032;-68
2022/06/04 03:10:26;;;;;;;7.03;2.90;;;;;;;13.59;68.72;101650.44;5200143;28;20057;-68
2022/06/04 03:12:58;;;;;;;6.15;3.42;;;;;;;13.59;68.38;101645.91;5201564;28;20033;-68
2022/06/04 03:15:29;;;;;;;6.03;3.20;;;;;;;13.63;69.06;101647.38;5206720;28;20044;-68
2022/06/04 03:18:00;;;;;;;3.92;3.05;;;;;;;13.53;69.81;101652.59;5207345;28;20512;-68
2022/06/04 03:20:32;;;;;;;7.47;3.47;;;;;;;13.53;69.75;101659.81;5212246;28;20045;-68
2022/06/04 03:23:03;;;;;;;5.35;2.95;;;;;;;13.57;71.30;101671.16;5216184;28;20040;-68
2022/06/04 03:25:36;;;;;;;5.90;3.92;;;;;;;13.58;71.77;101659.47;5205659;28;20036;-68
2022/06/04 03:28:09;;;;;;;5.90;3.30;;;;;;;13.59;72.19;101645.06;5206512;28;20055;-68
2022/06/04 03:30:40;;;;;;;6.78;3.72;;;;;;;13.47;70.31;101652.22;5197542;28;20400;-67
2022/06/04 03:33:11;;;;;;;9.52;4.43;;;;;;;13.46;72.30;101646.03;5204605;28;20028;-68
2022/06/04 03:35:43;;;;;;;7.00;4.30;;;;;;;13.44;71.74;101647.97;5205753;28;20014;-68
2022/06/04 03:38:15;;;;;;;6.40;4.30;;;;;;;13.34;71.52;101649.63;5205413;28;20113;-68
2022/06/04 03:40:46;;;;;;;8.00;4.10;;;;;;;13.40;73.10;101659.00;5214147;28;20036;-69
2022/06/04 03:43:17;;;;;;;5.75;4.15;;;;;;;13.38;73.37;101669.84;5205339;28;20034;-68
2022/06/04 03:45:49;;;;;;;7.72;4.00;;;;;;;13.50;72.68;101666.25;5210485;28;20034;-68
2022/06/04 03:48:20;;;;;;;9.23;4.55;;;;;;;13.40;72.53;101672.41;5213832;28;20037;-68
2022/06/04 03:50:51;;;;;;;6.97;4.40;;;;;;;13.44;74.42;101676.56;5206612;28;20361;-68
2022/06/04 03:53:22;;;;;;;7.53;4.00;;;;;;;13.36;72.20;101669.13;5207106;28;20556;-68
2022/06/04 03:55:54;;;;;;;6.88;4.10;;;;;;;13.31;72.82;101668.63;5209307;28;20030;-68
2022/06/04 03:58:30;;;;;;;5.70;4.43;;;;;;;13.39;76.04;101671.56;5210451;28;20036;-68
2022/06/04 04:01:14;;;;;;;8.13;4.53;;;;;;;13.36;74.65;101690.56;5204444;28;20113;-68
2022/06/04 04:03:46;;;;;;;7.70;4.50;;;;;;;13.37;74.31;101680.72;5210433;28;20125;-68
2022/06/04 04:06:21;;;;;;;7.18;4.80;;;;;;;13.26;74.05;101682.31;5204762;28;20100;-68
2022/06/04 04:08:53;;;;;;;8.00;4.40;;;;;;;13.34;74.83;101676.41;5208196;28;20038;-68
2022/06/04 04:11:27;;;;;;;8.13;4.55;;;;;;;13.28;74.96;101684.88;5208166;28;20298;-68
2022/06/04 04:13:58;;;;;;;7.72;4.90;;;;;;;13.28;73.98;101690.25;5212819;28;20052;-68
2022/06/04 04:16:29;;;;;;;12.40;5.57;;;;;;;13.25;75.30;101690.47;5206709;28;20050;-69
2022/06/04 04:19:01;;;;;;;7.97;5.00;;;;;;;13.21;74.32;101691.66;5212023;28;20040;-68
2022/06/04 04:21:39;;;;;;;5.57;4.38;;;;;;;13.27;75.58;101700.13;5200749;28;20064;-69
2022/06/04 04:24:11;;;;;;;7.80;4.80;;;;;;;13.28;74.38;101692.94;5211496;28;20037;-68
2022/06/04 04:26:42;;;;;;;8.35;4.82;;;;;;;13.23;74.66;101695.09;5209110;28;20035;-68
2022/06/04 04:29:14;;;;;;;8.05;4.60;;;;;;;13.25;75.98;101706.53;5207485;28;20030;-68
2022/06/04 04:31:46;;;;;;;7.22;5.10;;;;;;;13.23;75.72;101708.47;5203274;28;20018;-68
2022/06/04 04:34:17;;;;;;;12.52;5.18;;;;;;;13.22;75.49;101706.78;5211946;28;20129;-68
2022/06/04 04:36:48;;;;;;;6.57;4.80;;;;;;;13.25;76.24;101707.41;5214090;28;20034;-68
2022/06/04 04:39:19;;;;;;;10.82;4.68;;;;;;;13.20;76.11;101714.09;5202747;28;20121;-68
2022/06/04 04:41:51;;;;;;;6.35;4.85;;;;;;;13.18;75.87;101706.16;5195757;28;20026;-68
2022/06/04 04:44:22;;;;;;;9.43;5.45;;;;;;;13.25;77.40;101718.16;5207539;28;20041;-68
2022/06/04 04:46:53;;;;;;;7.90;5.50;;;;;;;13.28;76.21;101727.78;5208164;28;20022;-68
2022/06/04 04:49:25;;;;;;;8.50;4.90;;;;;;;13.28;77.20;101725.09;5204372;28;20037;-68
2022/06/04 04:51:56;;;;;;;9.70;5.90;;;;;;;13.31;76.95;101727.59;5204596;28;20014;-68
2022/06/04 04:54:28;;;;;;;9.73;5.32;;;;;;;13.27;76.44;101743.00;5202714;28;20057;-68
2022/06/04 04:56:59;;;;;;;8.85;4.97;;;;;;;13.30;76.42;101731.22;5210836;28;20136;-68
2022/06/04 04:59:31;;;;;;;9.35;5.72;;;;;;;13.30;77.46;101731.22;5203000;28;20026;-68
2022/06/04 05:02:03;;;;;;;7.03;4.70;;;;;;;13.34;77.76;101730.03;5208243;28;20380;-68
2022/06/04 05:04:35;;;;;;;8.30;4.82;;;;;;;13.27;77.13;101728.72;5207399;28;20046;-68
2022/06/04 05:07:06;;;;;;;8.00;5.00;;;;;;;13.36;77.27;101730.75;5202512;28;20452;-69
2022/06/04 05:09:39;;;;;;;9.55;5.97;;;;;;;13.28;77.02;101736.66;5207082;28;20065;-68
2022/06/04 05:12:13;;;;;;;9.35;5.55;;;;;;;13.33;77.07;101734.53;5208668;28;20029;-68
2022/06/04 05:14:45;;;;;;;;;;;;;;;13.47;75.98;101727.28;5216246;28;20391;-68
2022/06/04 05:17:16;;;;;;;9.88;5.70;;;;;;;13.44;78.78;101728.38;5217196;28;19917;-68
2022/06/04 05:19:47;;;;;;;9.45;5.50;;;;;;;13.45;78.03;101738.13;5208977;28;20034;-68
2022/06/04 05:22:19;;;;;;;9.68;6.10;;;;;;;13.49;78.06;101736.91;5205026;28;20021;-67
2022/06/04 05:24:50;;;;;;;8.65;5.60;;;;;;;13.56;77.77;101744.50;5210282;28;20392;-68
2022/06/04 05:27:21;;;;;;;12.43;5.50;;;;;;;13.64;77.62;101739.44;5216898;28;20026;-68
2022/06/04 05:29:53;;;;;;;7.50;5.75;;;;;;;13.73;78.94;101739.59;5203010;28;20497;-68
2022/06/04 05:32:24;;;;;;;10.90;6.03;;;;;;;13.80;79.76;101741.81;5217077;28;20026;-68
2022/06/04 05:34:55;;;;;;;8.48;5.65;;;;;;;13.75;77.96;101744.84;5212801;28;20052;-68
2022/06/04 05:37:26;;;;;;;10.35;6.10;;;;;;;13.90;77.82;101737.44;5217728;28;20032;-68
2022/06/04 05:39:58;;;;;;;13.10;6.43;;;;;;;13.88;77.31;101752.81;5216745;28;20037;-68
2022/06/04 05:42:29;;;;;;;7.63;5.50;;;;;;;14.04;77.92;101756.03;5212556;28;20030;-68
2022/06/04 05:45:01;;;;;;;9.27;5.60;;;;;;;13.90;76.59;101758.91;5211430;28;20484;-68
2022/06/04 05:47:32;;;;;;;9.23;6.13;;;;;;;13.99;77.80;101754.69;5211534;28;20037;-68
2022/06/04 05:50:04;;;;;;;8.32;5.60;;;;;;;14.11;78.85;101762.66;5211585;28;20025;-68
2022/06/04 05:52:35;;;;;;;11.60;6.07;;;;;;;14.22;77.76;101760.97;5207981;28;20071;-68
2022/06/04 05:55:07;;;;;;;8.40;5.93;;;;;;;14.22;78.39;101769.00;5206700;28;20038;-68
2022/06/04 05:57:38;;;;;;;9.77;5.85;;;;;;;14.19;76.40;101764.75;5213731;28;20053;-68
2022/06/04 06:00:10;;;;;;;7.13;5.63;;;;;;;14.16;77.00;101761.44;5207659;28;20105;-69
2022/06/04 06:02:41;;;;;;;10.70;6.53;;;;;;;14.15;76.93;101767.78;5207648;28;20141;-68
2022/06/04 06:05:13;;;;;;;9.88;6.40;;;;;;;14.16;76.65;101772.19;5200727;28;20054;-68
2022/06/04 06:07:44;;;;;;;10.10;6.43;;;;;;;14.21;77.00;101772.66;5209411;28;20030;-68
2022/06/04 06:10:15;;;;;;;9.68;6.07;;;;;;;14.29;76.64;101778.31;5204947;28;20033;-68
2022/06/04 06:12:47;;;;;;;13.68;6.70;;;;;;;14.38;77.41;101771.34;5207690;28;20034;-69
2022/06/04 06:15:18;;;;;;;9.40;6.15;;;;;;;14.43;76.99;101771.88;5213067;28;20029;-69
2022/06/04 06:17:49;;;;;;;9.98;6.22;;;;;;;14.41;75.61;101763.06;5214956;28;20054;-68
2022/06/04 06:20:21;;;;;;;11.27;6.63;;;;;;;14.44;76.15;101765.50;5218094;28;20057;-68
2022/06/04 06:22:52;;;;;;;12.43;7.05;;;;;;;14.49;78.01;101766.00;5210604;28;20032;-68
2022/06/04 06:25:24;;;;;;;11.10;6.63;;;;;;;14.57;75.74;101765.44;5214825;28;20026;-68
2022/06/04 06:27:57;;;;;;;13.23;7.35;;;;;;;14.67;75.74;101759.22;5202758;28;20392;-68
2022/06/04 06:30:28;;;;;;;10.20;6.53;;;;;;;14.70;75.77;101769.72;5215263;28;20137;-68
2022/06/04 06:32:59;;;;;;;11.48;7.35;;;;;;;14.77;74.15;101774.63;5205663;28;20026;-68
2022/06/04 06:35:31;;;;;;;10.82;6.80;;;;;;;14.86;75.89;101779.22;5210104;28;20030;-69
2022/06/04 06:38:02;;;;;;;11.73;6.68;;;;;;;14.90;77.24;101783.41;5213220;28;20029;-68
2022/06/04 06:40:35;;;;;;;7.78;5.85;;;;;;;15.00;75.24;101787.06;5209143;28;20033;-68
2022/06/04 06:43:06;;;;;;;10.20;7.00;;;;;;;15.12;76.30;101782.53;5204377;28;20042;-69
2022/06/04 06:45:38;;;;;;;13.90;7.32;;;;;;;15.15;74.24;101782.28;5201770;28;20026;-69
2022/06/04 06:48:09;;;;;;;12.07;7.15;;;;;;;15.04;73.40;101795.75;5206635;28;20029;-68
2022/06/04 06:50:42;;;;;;;9.50;6.97;;;;;;;15.15;73.27;101789.47;5205427;28;20108;-68
2022/06/04 06:53:14;;;;;;;9.87;7.90;;;;;;;15.28;72.98;101792.88;5201699;28;20054;-69
2022/06/04 06:55:45;;;;;;;10.10;6.93;;;;;;;15.26;72.79;101798.41;5205920;28;20856;-69
2022/06/04 06:58:16;;;;;;;9.48;6.90;;;;;;;15.27;73.28;101796.56;5213072;28;20460;-69
2022/06/04 07:00:48;;;;;;;12.30;7.20;;;;;;;15.33;72.89;101798.75;5215662;28;20038;-68
2022/06/04 07:03:19;;;;;;;11.18;7.35;;;;;;;15.40;71.88;101794.59;5205399;28;20515;-69
2022/06/04 07:05:55;;;;;;;13.60;9.02;;;;;;;15.35;71.40;101786.03;5208849;28;20385;-69
2022/06/04 07:08:27;;;;;;;9.65;7.05;;;;;;;15.44;71.94;101797.88;5210858;28;20033;-69
2022/06/04 07:10:58;;;;;;;11.45;7.70;;;;;;;15.42;72.62;101787.25;5210374;28;20349;-69
2022/06/04 07:13:30;;;;;;;10.63;7.63;;;;;;;15.42;72.84;101795.31;5212427;28;20100;-69
2022/06/04 07:16:02;;;;;;;9.88;7.10;;;;;;;15.39;71.62;101790.19;5215653;28;20034;-69
2022/06/04 07:18:34;;;;;;;11.68;7.95;;;;;;;15.37;72.41;101789.44;5213596;28;20045;-69
2022/06/04 07:21:05;;;;;;;11.95;7.45;;;;;;;15.44;73.43;101803.25;5215156;28;20025;-68
2022/06/04 07:23:38;;;;;;;11.93;7.47;;;;;;;15.49;72.10;101793.84;5208295;28;20385;-69
2022/06/04 07:26:12;;;;;;;12.52;7.93;;;;;;;15.56;73.57;101804.09;5204892;28;20522;-69
2022/06/04 07:28:43;;;;;;;11.75;7.65;;;;;;;15.59;73.24;101791.25;5213099;28;20034;-70
2022/06/04 07:31:15;;;;;;;12.27;7.93;;;;;;;15.71;74.63;101797.44;5215137;28;20348;-69
2022/06/04 07:33:48;;;;;;;11.55;8.52;;;;;;;15.74;71.97;101807.97;5203019;28;20101;-69
2022/06/04 07:36:23;;;;;;;10.68;7.78;;;;;;;15.79;73.09;101810.28;5213896;28;20029;-69
2022/06/04 07:38:55;;;;;;;10.70;6.90;;;;;;;15.81;71.79;101809.16;5202364;28;20018;-69
2022/06/04 07:41:30;;;;;;;11.20;7.80;;;;;;;15.83;70.91;101822.50;5207624;28;20033;-69
2022/06/04 07:44:01;;;;;;;11.93;8.13;;;;;;;15.83;70.90;101820.66;5215286;28;20045;-69
2022/06/04 07:46:33;;;;;;;13.65;8.05;;;;;;;16.00;71.64;101826.47;5205937;28;20025;-69
2022/06/04 07:49:06;;;;;;;12.52;7.63;;;;;;;15.95;71.32;101818.75;5206184;28;20434;-69
2022/06/04 07:51:39;;;;;;;10.60;7.43;;;;;;;16.02;70.61;101817.28;5210564;28;20326;-69
2022/06/04 07:54:11;;;;;;;11.20;7.68;;;;;;;15.97;71.60;101810.56;5206918;28;20490;-69
2022/06/04 07:56:43;;;;;;;11.90;8.07;;;;;;;15.98;71.21;101812.28;5209193;28;20026;-69
2022/06/04 07:59:16;;;;;;;10.05;7.38;;;;;;;16.13;71.18;101820.88;5209973;28;20021;-69
2022/06/04 08:01:47;;;;;;;13.75;7.63;;;;;;;16.19;69.72;101815.84;5214606;28;20034;-69
2022/06/04 08:04:19;;;;;;;12.40;7.35;;;;;;;16.18;70.28;101818.66;5214723;28;20033;-68
2022/06/04 08:06:50;;;;;;;12.27;7.90;;;;;;;16.16;69.76;101818.78;5214271;28;20495;-69
2022/06/04 08:09:21;;;;;;;13.45;8.63;;;;;;;16.06;68.48;101820.56;5202528;28;20025;-69
2022/06/04 08:11:53;;;;;;;11.57;7.53;;;;;;;16.10;72.57;101822.00;5205164;28;20115;-68
2022/06/04 08:14:26;;;;;;;9.98;7.80;;;;;;;16.14;71.76;101819.91;5208096;28;20084;-69
2022/06/04 08:16:59;;;;;;;12.45;8.05;;;;;;;16.21;72.82;101813.03;5207019;28;20045;-69
2022/06/04 08:19:32;;;;;;;9.63;7.60;;;;;;;16.16;69.97;101807.19;5212690;28;20026;-69
2022/06/04 08:22:05;;;;;;;10.23;8.20;;;;;;;16.31;69.49;101805.88;5215290;28;20037;-69
2022/06/04 08:24:37;;;;;;;12.88;7.97;;;;;;;16.21;69.27;101811.19;5213473;28;20476;-68
2022/06/04 08:27:08;;;;;;;11.57;8.13;;;;;;;16.14;70.14;101801.06;5213925;28;20113;-69
2022/06/04 08:29:39;;;;;;;10.88;8.00;;;;;;;16.18;69.64;101791.75;5216290;28;20025;-69
2022/06/04 08:32:13;;;;;;;11.70;8.30;;;;;;;16.16;69.06;101793.72;5213673;28;20068;-69
2022/06/04 08:34:44;;;;;;;12.73;8.15;;;;;;;16.27;69.22;101781.03;5211328;28;20045;-68
2022/06/04 08:37:16;;;;;;;12.57;8.23;;;;;;;16.21;68.64;101784.25;5196548;28;20030;-69
2022/06/04 08:39:47;;;;;;;12.15;8.82;;;;;;;16.18;68.95;101795.28;5204096;28;20036;-69
2022/06/04 08:42:54;;;;;;;10.52;7.72;;;;;;;16.23;70.14;101794.91;5216681;28;20103;-68
2022/06/04 08:45:26;;;;;;;12.27;8.23;;;;;;;16.27;70.29;101793.66;5215251;28;20034;-68
2022/06/04 08:47:57;;;;;;;13.70;8.13;;;;;;;16.38;70.71;101806.22;5217360;28;20085;-68
2022/06/04 08:50:35;;;;;;;11.95;8.60;;;;;;;16.53;69.40;101810.28;5208619;28;20036;-69
2022/06/04 08:53:24;;;;;;;10.68;8.00;;;;;;;16.77;68.54;101812.66;5211607;28;20036;-68
2022/06/04 08:59:17;;;;;;;12.13;8.32;;;;;;;17.11;69.19;101817.81;5211774;28;20033;-69
2022/06/04 09:01:56;;;;;;;9.82;8.35;;;;;;;17.13;67.07;101817.69;5215127;28;20034;-68
2022/06/04 09:04:35;;;;;;;13.93;8.73;;;;;;;17.23;68.21;101815.88;5200505;28;20029;-68
2022/06/04 09:07:22;;;;;;;11.38;8.05;;;;;;;17.52;65.71;101820.47;5218947;28;20028;-69
2022/06/04 09:10:22;;;;;;;11.73;8.27;;;;;;;17.76;65.65;101817.41;5206022;28;20026;-69
2022/06/04 09:12:59;;;;;;;13.30;8.63;;;;;;;18.07;63.80;101825.41;5215356;28;20346;-68
2022/06/04 09:15:37;;;;;;;12.45;8.85;;;;;;;18.25;63.28;101817.41;5217830;28;20025;-68
2022/06/04 09:18:31;;;;;;;9.98;7.82;;;;;;;18.52;64.30;101809.41;5208863;28;20485;-68
2022/06/04 09:21:05;;;;;;;14.07;8.20;;;;;;;18.75;63.23;101806.34;5207481;28;20267;-69
2022/06/04 09:23:45;;;;;;;11.68;8.10;;;;;;;19.06;64.19;101808.81;5216659;28;20456;-68
2022/06/04 09:26:25;;;;;;;12.20;8.38;;;;;;;19.23;62.50;101812.59;5210857;28;20034;-69
2022/06/04 09:29:25;;;;;;;11.77;8.15;;;;;;;19.31;63.88;101810.84;5208403;28;20033;-69
2022/06/04 09:32:44;;;;;;;13.00;8.43;;;;;;;19.37;63.21;101826.47;5215280;28;20419;-68
2022/06/04 09:35:26;;;;;;;10.05;7.82;;;;;;;19.48;61.25;101825.41;5201791;28;20053;-69
2022/06/04 09:37:58;;;;;;;14.75;8.30;;;;;;;19.35;59.23;101828.47;5211524;28;20026;-69
2022/06/04 09:40:32;;;;;;;10.20;7.93;;;;;;;19.55;61.04;101825.66;5216524;28;20044;-69
2022/06/04 09:43:16;;;;;;;8.88;7.85;;;;;;;19.65;60.87;101818.31;5210017;28;20030;-69
2022/06/04 09:45:53;;;;;;;11.45;9.23;;;;;;;19.85;59.30;101818.19;5200348;28;20892;-69
2022/06/04 09:48:47;;;;;;;12.52;8.68;;;;;;;19.87;57.44;101821.63;5198880;28;20512;-68
2022/06/04 09:51:22;;;;;;;11.55;8.18;;;;;;;19.82;56.56;101829.34;5207690;28;20030;-68
2022/06/04 09:54:05;;;;;;;12.07;9.50;;;;;;;19.73;59.44;101834.69;5201426;28;20113;-68
2022/06/04 09:56:39;;;;;;;9.93;8.15;;;;;;;20.06;58.65;101831.41;5206772;28;20030;-69
2022/06/04 09:59:28;;;;;;;10.90;8.02;;;;;;;20.03;58.48;101829.03;5203479;28;20034;-68
2022/06/04 10:02:18;;;;;;;10.90;8.82;;;;;;;20.06;58.83;101831.41;5209746;28;20033;-69
2022/06/04 10:04:58;;;;;;;12.05;9.10;;;;;;;20.06;58.27;101832.28;5208602;28;20037;-69
2022/06/04 10:07:36;;;;;;;13.43;9.43;;;;;;;19.90;56.33;101834.84;5210862;28;20468;-68
2022/06/04 10:10:21;;;;;;;11.77;8.85;;;;;;;19.77;57.21;101841.50;5210706;28;20029;-68
2022/06/04 10:15:47;;;;;;;10.18;8.55;;;;;;;19.90;58.29;101840.25;5213142;28;20567;-68
2022/06/04 10:18:21;;;;;;;10.57;8.82;;;;;;;19.95;57.85;101837.94;5209667;28;20133;-68
2022/06/04 10:21:01;;;;;;;;;;;;;;;20.28;57.07;101843.66;5213924;28;20375;-68
2022/06/04 10:23:45;;;;;;;11.10;9.20;;;;;;;19.80;56.66;101839.50;5207856;28;19929;-69
2022/06/04 10:26:29;;;;;;;14.98;9.23;;;;;;;19.95;58.03;101837.94;5211313;28;20030;-69
2022/06/04 10:29:10;;;;;;;;;;;;;;;20.27;58.42;101840.09;5198073;28;20022;-69
2022/06/04 10:32:06;;;;;;;12.85;9.27;;;;;;;20.11;57.43;101837.22;5207337;28;20010;-69
2022/06/04 10:34:45;;;;;;;11.38;8.50;;;;;;;20.39;58.66;101842.56;5204660;28;20075;-69
2022/06/04 10:37:35;;;;;;;11.50;9.85;;;;;;;20.39;57.33;101846.13;5196796;28;20483;-69
2022/06/04 10:40:45;;;;;;;14.85;8.70;;;;;;;20.56;56.68;101836.25;5206444;28;20037;-69
2022/06/04 10:43:50;;;;;;;11.63;8.85;;;;;;;20.78;58.51;101837.59;5206474;28;20034;-69
2022/06/04 10:46:40;;;;;;;12.02;9.88;;;;;;;20.83;56.49;101835.25;5214468;28;20113;-69
2022/06/04 10:49:48;;;;;;;13.55;9.05;;;;;;;21.18;57.51;101843.41;5204547;28;20037;-69
2022/06/04 10:52:31;;;;;;;15.23;9.32;;;;;;;21.47;55.81;101838.44;5207010;28;20161;-69
2022/06/04 10:55:24;;;;;;;14.98;9.73;;;;;;;21.92;55.22;101842.63;5205333;28;20019;-69
2022/06/04 10:58:04;;;;;;;11.65;10.15;;;;;;;21.92;55.12;101842.63;5207360;28;20055;-69
2022/06/04 11:00:42;;;;;;;13.15;9.63;;;;;;;22.22;51.86;101848.41;5210185;28;20030;-69
2022/06/04 11:03:38;;;;;;;12.10;9.10;;;;;;;22.43;51.37;101852.53;5214439;28;20022;-69
2022/06/04 11:06:25;;;;;;;11.55;8.68;;;;;;;22.72;53.04;101846.53;5213081;28;20037;-69
2022/06/04 11:09:06;;;;;;;12.75;9.40;;;;;;;22.59;51.19;101848.94;5210086;28;20022;-69
2022/06/04 11:11:48;;;;;;;12.50;9.13;;;;;;;22.57;50.77;101846.41;5212388;28;20022;-69
2022/06/04 11:14:38;;;;;;;12.15;9.20;;;;;;;22.37;50.53;101839.63;5215310;28;20026;-69
2022/06/04 11:17:44;;;;;;;12.25;9.20;;;;;;;22.33;50.74;101843.72;5203634;28;20057;-69
2022/06/04 11:20:20;;;;;;;11.35;9.40;;;;;;;22.41;51.23;101858.13;5197493;28;20034;-69
2022/06/04 11:23:26;;;;;;;11.75;8.32;;;;;;;22.67;52.40;101846.22;5199406;28;20366;-69
2022/06/04 11:26:04;;;;;;;12.23;9.10;;;;;;;22.68;52.29;101843.31;5213130;28;20041;-69
2022/06/04 11:28:37;;;;;;;10.80;8.68;;;;;;;23.00;51.29;101841.53;5212684;28;20040;-69
2022/06/04 11:31:29;;;;;;;14.20;9.43;;;;;;;23.17;48.96;101847.81;5214623;28;20034;-69
2022/06/04 11:34:10;;;;;;;10.77;9.55;;;;;;;23.05;49.43;101841.03;5205127;28;20038;-70
2022/06/04 11:36:50;;;;;;;12.65;9.32;;;;;;;23.12;49.82;101836.59;5206404;28;20435;-70
2022/06/04 11:39:34;;;;;;;12.98;9.50;;;;;;;23.28;50.67;101833.81;5208638;28;20034;-69
2022/06/04 11:42:21;;;;;;;12.10;9.82;;;;;;;23.27;50.71;101826.66;5210386;28;20387;-70
2022/06/04 11:45:22;;;;;;;11.23;9.05;;;;;;;23.25;51.76;101828.69;5213961;28;20025;-70
2022/06/04 11:48:37;;;;;;;11.35;9.00;;;;;;;23.37;51.32;101811.97;5203685;28;20056;-69
2022/06/04 11:51:43;;;;;;;11.23;9.10;;;;;;;23.42;50.93;101817.75;5214080;28;20026;-69
2022/06/04 11:54:39;;;;;;;12.57;9.60;;;;;;;23.18;49.59;101813.25;5210325;28;20038;-69
2022/06/04 11:57:44;;;;;;;11.93;9.57;;;;;;;23.06;49.95;101813.63;5215824;28;20433;-69
2022/06/04 12:00:28;;;;;;;10.57;9.20;;;;;;;23.13;51.10;101799.31;5212506;28;20285;-69
2022/06/04 12:03:24;;;;;;;10.23;7.57;;;;;;;23.06;50.36;101807.34;5214616;28;20542;-69
2022/06/04 12:06:00;;;;;;;10.35;8.25;;;;;;;22.99;51.40;101796.31;5196364;28;20484;-69
2022/06/04 12:08:40;;;;;;;11.10;9.40;;;;;;;23.01;49.32;101794.25;5199282;28;20065;-69
2022/06/04 12:11:23;;;;;;;14.52;10.00;;;;;;;22.84;48.98;101787.13;5206092;28;20404;-69
2022/06/04 12:14:28;;;;;;;11.73;9.07;;;;;;;22.86;50.04;101785.97;5216964;28;20033;-69
2022/06/04 12:17:28;;;;;;;10.65;8.43;;;;;;;22.86;51.57;101779.69;5210727;28;20050;-69
2022/06/04 12:25:46;;;;;;;12.00;10.02;;;;;;;22.66;49.33;101777.34;5217249;28;20026;-70
2022/06/04 12:28:20;;;;;;;11.43;8.13;;;;;;;22.80;51.59;101777.63;5205952;28;20061;-70
2022/06/04 12:30:52;;;;;;;;;;;;;;;22.87;51.44;101771.31;5201873;28;20543;-70
2022/06/04 12:33:40;;;;;;;13.65;9.45;;;;;;;22.83;51.63;101759.09;5205027;28;19917;-70